Time;durP1;ratioP1;P1;durP2;ratioP2;P2;SDS_P1;SDS_P2;PMS_P1;PMS_P2;Temp;Humidity;BMP_temperature;BMP_pressure;BME280_temperature;BME280_humidity;BME280_pressure;Samples;Min_cycle;Max_cycle;Signal;HPM_P1;HPM_P2
2022/11/26 00:02:12;;;;;;;;;;;;;;;8.47;63.21;101309.53;5054124;28;19912;-77
2022/11/26 00:04:57;;;;;;;;;;;;;;;8.56;63.47;101313.22;5046423;28;19913;-76
2022/11/26 00:07:44;;;;;;;;;;;;;;;8.75;64.01;101310.59;5054952;28;19912;-76
2022/11/26 00:10:29;;;;;;;;;;;;;;;8.67;62.32;101306.63;5054570;28;19916;-75
2022/11/26 00:13:22;;;;;;;;;;;;;;;8.48;62.70;101314.66;5046814;28;19913;-76
2022/11/26 00:16:13;;;;;;;;;;;;;;;8.66;63.09;101317.75;5048539;28;19917;-76
2022/11/26 00:18:57;;;;;;;;;;;;;;;8.71;62.31;101318.50;5052753;28;19913;-76
2022/11/26 00:21:42;;;;;;;;;;;;;;;8.82;62.00;101311.88;5053619;28;19912;-76
2022/11/26 00:24:27;;;;;;;;;;;;;;;8.80;62.57;101308.63;5067159;28;19912;-76
2022/11/26 00:27:11;;;;;;;;;;;;;;;8.52;63.19;101310.31;5048020;28;20324;-76
2022/11/26 00:29:56;;;;;;;;;;;;;;;8.49;63.84;101308.16;5056016;28;19913;-75
2022/11/26 00:32:40;;;;;;;;;;;;;;;8.40;63.86;101314.47;5054502;28;19917;-76
2022/11/26 00:35:24;;;;;;;;;;;;;;;8.35;64.05;101307.22;5072818;28;20313;-76
2022/11/26 00:38:14;;;;;;;;;;;;;;;8.50;63.54;101303.53;5054803;28;19920;-76
2022/11/26 00:40:59;;;;;;;;;;;;;;;8.80;63.34;101299.69;5053981;28;19912;-75
2022/11/26 00:43:44;;;;;;;;;;;;;;;8.96;62.36;101310.06;5054673;28;19916;-76
2022/11/26 00:46:28;;;;;;;;;;;;;;;8.89;61.12;101304.19;5054701;28;19912;-75
2022/11/26 00:49:13;;;;;;;;;;;;;;;9.18;61.78;101306.00;5068614;28;19912;-76
2022/11/26 00:51:57;;;;;;;;;;;;;;;8.99;62.30;101308.66;5054227;28;19913;-76
2022/11/26 00:54:41;;;;;;;;;;;;;;;8.63;62.61;101308.28;5056631;28;20286;-76
2022/11/26 00:57:26;;;;;;;;;;;;;;;8.74;63.72;101300.81;5054349;28;19936;-76
2022/11/26 01:00:15;;;;;;;;;;;;;;;8.67;62.77;101303.91;5069029;28;19912;-75
2022/11/26 01:03:00;;;;;;;;;;;;;;;8.67;62.68;101313.94;5053965;28;19912;-76
2022/11/26 01:05:47;;;;;;;;;;;;;;;8.72;62.27;101314.69;5068540;28;19913;-75
2022/11/26 01:08:33;;;;;;;;;;;;;;;8.71;62.48;101317.69;5058522;28;19913;-76
2022/11/26 01:11:19;;;;;;;;;;;;;;;8.43;63.06;101322.06;5054003;28;20008;-78
2022/11/26 01:14:05;;;;;;;;;;;;;;;8.37;63.88;101334.84;5054204;28;20301;-76
2022/11/26 01:16:52;;;;;;;;;;;;;;;8.50;64.47;101323.31;5041946;28;19917;-75
2022/11/26 01:19:36;;;;;;;;;;;;;;;8.63;63.16;101321.03;5038288;28;20011;-75
2022/11/26 01:22:22;;;;;;;;;;;;;;;8.48;62.80;101325.50;5035643;28;20385;-76
2022/11/26 01:25:06;;;;;;;;;;;;;;;8.35;64.61;101331.59;5053806;28;20289;-76
2022/11/26 01:27:51;;;;;;;;;;;;;;;8.35;64.08;101326.19;5070872;28;19916;-76
2022/11/26 01:30:35;;;;;;;;;;;;;;;8.55;62.98;101325.16;5033514;28;19913;-76
2022/11/26 01:33:20;;;;;;;;;;;;;;;8.29;64.27;101331.88;5033578;28;19913;-75
2022/11/26 01:36:16;;;;;;;;;;;;;;;8.12;64.70;101335.03;5033672;28;19917;-75
2022/11/26 01:39:14;;;;;;;;;;;;;;;7.96;65.75;101341.66;5033727;28;19913;-78
2022/11/26 01:42:12;;;;;;;;;;;;;;;8.18;66.77;101347.41;5045737;28;19913;-76
2022/11/26 01:44:56;;;;;;;;;;;;;;;8.13;64.83;101344.75;5053403;28;19913;-75
2022/11/26 01:47:41;;;;;;;;;;;;;;;8.18;65.08;101352.06;5049845;28;19920;-76
2022/11/26 01:50:32;;;;;;;;;;;;;;;8.06;64.95;101347.00;5061437;28;20305;-75
2022/11/26 01:53:29;;;;;;;;;;;;;;;8.13;65.20;101355.59;5033218;28;19913;-76
2022/11/26 01:56:17;;;;;;;;;;;;;;;8.10;64.52;101356.16;5052835;28;20301;-76
2022/11/26 01:59:09;;;;;;;;;;;;;;;8.31;63.72;101346.81;5056103;28;19913;-75
2022/11/26 02:01:55;;;;;;;;;;;;;;;8.21;64.43;101346.06;5052942;28;19912;-76
2022/11/26 02:04:44;;;;;;;;;;;;;;;8.50;63.55;101350.41;5051440;28;19924;-75
2022/11/26 02:07:28;;;;;;;;;;;;;;;8.48;62.63;101349.88;5052568;28;19912;-75
2022/11/26 02:10:13;;;;;;;;;;;;;;;8.24;62.71;101354.41;5069633;28;19913;-75
2022/11/26 02:12:58;;;;;;;;;;;;;;;8.38;62.44;101352.69;5058801;28;19913;-74
2022/11/26 02:16:06;;;;;;;;;;;;;;;8.76;61.82;101364.53;5052974;28;19920;-74
2022/11/26 02:18:59;;;;;;;;;;;;;;;8.86;60.64;101364.44;5052356;28;19913;-75
2022/11/26 02:21:50;;;;;;;;;;;;;;;8.94;59.85;101371.09;5049503;28;19917;-75
2022/11/26 02:24:43;;;;;;;;;;;;;;;9.01;59.11;101377.00;5066884;28;20527;-75
2022/11/26 02:27:31;;;;;;;;;;;;;;;8.82;58.33;101381.56;5047092;28;19916;-75
2022/11/26 02:30:16;;;;;;;;;;;;;;;8.62;60.13;101371.72;5045380;28;19920;-75
2022/11/26 02:33:04;;;;;;;;;;;;;;;8.46;60.68;101370.25;5067300;28;19920;-74
2022/11/26 02:35:53;;;;;;;;;;;;;;;8.25;60.05;101374.19;5051683;28;19917;-76
2022/11/26 02:38:38;;;;;;;;;;;;;;;8.42;59.95;101380.88;5052460;28;19912;-76
2022/11/26 02:41:23;;;;;;;;;;;;;;;8.38;60.26;101376.28;5052113;28;19912;-74
2022/11/26 02:44:07;;;;;;;;;;;;;;;8.15;60.59;101375.88;5057892;28;20300;-75
2022/11/26 02:47:05;;;;;;;;;;;;;;;8.38;59.57;101374.38;5052452;28;20366;-76
2022/11/26 02:49:50;;;;;;;;;;;;;;;8.21;60.10;101375.84;5052137;28;20377;-77
2022/11/26 02:52:36;;;;;;;;;;;;;;;8.24;60.39;101381.50;5056382;28;19912;-76
2022/11/26 02:55:24;;;;;;;;;;;;;;;8.15;61.45;101383.22;5052273;28;19912;-76
2022/11/26 02:58:08;;;;;;;;;;;;;;;8.19;60.75;101384.25;5051532;28;19917;-75
2022/11/26 03:00:55;;;;;;;;;;;;;;;8.00;61.44;101391.44;5042013;28;19913;-77
2022/11/26 03:03:45;;;;;;;;;;;;;;;8.01;61.97;101384.94;5052158;28;19916;-76
2022/11/26 03:06:31;;;;;;;;;;;;;;;8.11;62.44;101387.56;5052740;28;19913;-77
2022/11/26 03:09:16;;;;;;;;;;;;;;;7.79;61.83;101379.94;5055301;28;19916;-75
2022/11/26 03:12:01;;;;;;;;;;;;;;;7.82;62.26;101382.09;5054745;28;19912;-76
2022/11/26 03:14:45;;;;;;;;;;;;;;;7.92;62.09;101386.63;5052038;28;19912;-75
2022/11/26 03:17:30;;;;;;;;;;;;;;;7.86;62.77;101382.34;5049952;28;19916;-75
2022/11/26 03:20:14;;;;;;;;;;;;;;;7.95;62.36;101377.94;5051910;28;20404;-76
2022/11/26 03:22:59;;;;;;;;;;;;;;;8.02;61.80;101386.56;5052622;28;19912;-75
2022/11/26 03:25:43;;;;;;;;;;;;;;;8.00;62.15;101394.16;5051799;28;19913;-76
2022/11/26 03:28:28;;;;;;;;;;;;;;;8.15;61.60;101386.72;5051831;28;19916;-75
2022/11/26 03:31:12;;;;;;;;;;;;;;;8.42;61.30;101390.88;5067114;28;19913;-76
2022/11/26 03:33:56;;;;;;;;;;;;;;;8.67;59.31;101387.94;5065513;28;19912;-75
2022/11/26 03:36:41;;;;;;;;;;;;;;;8.90;58.72;101395.28;5051772;28;19916;-75
2022/11/26 03:39:25;;;;;;;;;;;;;;;8.30;60.48;101393.97;5047962;28;19913;-76
2022/11/26 03:42:10;;;;;;;;;;;;;;;8.06;60.64;101398.44;5051437;28;19913;-75
2022/11/26 03:44:54;;;;;;;;;;;;;;;7.87;61.99;101405.63;5051570;28;20296;-75
2022/11/26 03:47:39;;;;;;;;;;;;;;;8.06;63.20;101403.88;5051560;28;19913;-77
2022/11/26 03:50:23;;;;;;;;;;;;;;;7.81;61.87;101394.00;5051730;28;19916;-74
2022/11/26 03:53:07;;;;;;;;;;;;;;;7.69;62.08;101394.34;5051459;28;19912;-76
2022/11/26 03:55:52;;;;;;;;;;;;;;;7.56;62.93;101402.25;5051619;28;20292;-77
2022/11/26 03:58:38;;;;;;;;;;;;;;;7.57;63.17;101404.66;5032454;28;19913;-74
2022/11/26 04:01:24;;;;;;;;;;;;;;;7.45;63.00;101404.22;5045383;28;19913;-75
2022/11/26 04:04:08;;;;;;;;;;;;;;;7.54;63.36;101412.53;5068351;28;19913;-76
2022/11/26 04:06:53;;;;;;;;;;;;;;;7.48;63.42;101409.06;5066585;28;19920;-76
2022/11/26 04:09:38;;;;;;;;;;;;;;;7.68;64.36;101419.78;5064564;28;19917;-75
2022/11/26 04:12:22;;;;;;;;;;;;;;;7.95;61.37;101419.38;5047212;28;19913;-76
2022/11/26 04:15:07;;;;;;;;;;;;;;;8.47;61.55;101418.75;5032583;28;19912;-78
2022/11/26 04:17:51;;;;;;;;;;;;;;;8.73;58.51;101413.94;5031301;28;20381;-76
2022/11/26 04:20:36;;;;;;;;;;;;;;;8.70;57.18;101419.91;5030939;28;19913;-76
2022/11/26 04:23:20;;;;;;;;;;;;;;;8.26;59.45;101419.97;5046805;28;20381;-77
2022/11/26 04:26:05;;;;;;;;;;;;;;;7.94;60.45;101425.06;5031397;28;19917;-76
2022/11/26 04:28:49;;;;;;;;;;;;;;;8.18;60.92;101436.81;5031568;28;19913;-77
2022/11/26 04:31:33;;;;;;;;;;;;;;;8.24;59.57;101432.97;5038098;28;20381;-76
2022/11/26 04:34:18;;;;;;;;;;;;;;;8.18;59.94;101439.53;5050686;28;19912;-76
2022/11/26 04:37:02;;;;;;;;;;;;;;;8.39;58.90;101440.22;5034686;28;19917;-74
2022/11/26 04:39:47;;;;;;;;;;;;;;;7.99;59.04;101450.22;5034800;28;19913;-75
2022/11/26 04:42:31;;;;;;;;;;;;;;;7.68;59.99;101452.25;5034602;28;20294;-75
2022/11/26 04:45:15;;;;;;;;;;;;;;;8.11;61.24;101449.88;5034816;28;20370;-75
2022/11/26 04:48:00;;;;;;;;;;;;;;;8.21;59.71;101454.41;5034741;28;19913;-74
2022/11/26 04:50:44;;;;;;;;;;;;;;;7.83;59.05;101445.16;5071464;22;19925;-77
2022/11/26 04:53:28;;;;;;;;;;;;;;;8.11;57.95;101460.72;5047665;28;19917;-77
2022/11/26 04:56:13;;;;;;;;;;;;;;;7.61;58.89;101456.38;5058655;28;19917;-77
2022/11/26 04:58:57;;;;;;;;;;;;;;;7.37;59.58;101461.56;5055480;28;19913;-78
2022/11/26 05:01:42;;;;;;;;;;;;;;;7.32;60.10;101475.13;5035027;28;19913;-77
2022/11/26 05:04:27;;;;;;;;;;;;;;;7.24;59.82;101470.28;5035541;28;19917;-78
2022/11/26 05:07:12;;;;;;;;;;;;;;;7.19;59.92;101475.69;5034556;28;20305;-77
2022/11/26 05:09:56;;;;;;;;;;;;;;;7.16;59.24;101477.03;5033912;28;19925;-77
2022/11/26 05:12:40;;;;;;;;;;;;;;;7.15;59.05;101483.56;5034113;28;20396;-77
2022/11/26 05:15:25;;;;;;;;;;;;;;;7.35;59.02;101480.00;5032781;28;19913;-78
2022/11/26 05:18:10;;;;;;;;;;;;;;;7.76;58.51;101479.84;5026715;28;20309;-77
2022/11/26 05:20:54;;;;;;;;;;;;;;;7.91;56.92;101485.19;5030391;28;19917;-77
2022/11/26 05:23:39;;;;;;;;;;;;;;;7.98;59.66;101496.53;5050944;28;19913;-78
2022/11/26 05:26:23;;;;;;;;;;;;;;;7.66;56.29;101494.25;5030440;28;20373;-78
2022/11/26 05:29:07;;;;;;;;;;;;;;;7.78;56.45;101494.72;5024395;28;20309;-78
2022/11/26 05:31:52;;;;;;;;;;;;;;;7.60;56.40;101492.63;5030781;28;19921;-77
2022/11/26 05:34:36;;;;;;;;;;;;;;;7.38;58.03;101498.38;5034582;28;19917;-77
2022/11/26 05:37:21;;;;;;;;;;;;;;;7.42;58.64;101490.50;5038294;28;19917;-77
2022/11/26 05:40:07;;;;;;;;;;;;;;;7.36;57.13;101492.44;5024815;28;19913;-77
2022/11/26 05:42:52;;;;;;;;;;;;;;;7.35;56.86;101498.13;5032322;28;20537;-77
2022/11/26 05:45:36;;;;;;;;;;;;;;;7.30;57.10;101488.94;5030311;28;19917;-77
2022/11/26 05:48:21;;;;;;;;;;;;;;;7.59;57.46;101489.13;5030967;28;19917;-77
2022/11/26 05:51:05;;;;;;;;;;;;;;;7.89;56.80;101503.59;5024332;28;19913;-78
2022/11/26 05:53:50;;;;;;;;;;;;;;;7.81;55.08;101506.91;5031702;28;20370;-77
2022/11/26 05:56:34;;;;;;;;;;;;;;;7.58;55.41;101506.44;5022310;28;19917;-77
2022/11/26 05:59:18;;;;;;;;;;;;;;;7.69;54.97;101516.16;5016304;28;19913;-77
2022/11/26 06:02:03;;;;;;;;;;;;;;;7.94;56.11;101519.84;5020194;28;19913;-77
2022/11/26 06:04:48;;;;;;;;;;;;;;;7.76;55.32;101528.59;5030099;28;19913;-77
2022/11/26 06:07:32;;;;;;;;;;;;;;;7.95;56.84;101532.28;5015434;28;20306;-77
2022/11/26 06:10:17;;;;;;;;;;;;;;;7.77;56.67;101546.44;5017042;28;19917;-78
2022/11/26 06:13:02;;;;;;;;;;;;;;;7.67;56.15;101542.66;5032213;28;20297;-77
2022/11/26 06:15:46;;;;;;;;;;;;;;;7.67;56.07;101544.56;5026306;28;19917;-77
2022/11/26 06:18:31;;;;;;;;;;;;;;;7.35;57.06;101542.22;5027934;28;19917;-77
2022/11/26 06:21:15;;;;;;;;;;;;;;;7.21;58.18;101533.06;5024617;28;19913;-77
2022/11/26 06:23:59;;;;;;;;;;;;;;;7.30;56.99;101534.13;5029054;28;19913;-77
2022/11/26 06:26:44;;;;;;;;;;;;;;;7.17;57.60;101540.88;5029012;28;20378;-77
2022/11/26 06:29:29;;;;;;;;;;;;;;;7.58;58.38;101538.91;5023416;28;19921;-77
2022/11/26 06:32:13;;;;;;;;;;;;;;;7.98;57.91;101539.84;5031282;28;19925;-77
2022/11/26 06:34:57;;;;;;;;;;;;;;;7.82;55.41;101539.13;5034811;28;19913;-78
2022/11/26 06:37:42;;;;;;;;;;;;;;;7.84;55.99;101546.94;5032645;28;19917;-77
2022/11/26 06:40:27;;;;;;;;;;;;;;;8.20;57.32;101551.13;5034024;28;19942;-78
2022/11/26 06:43:11;;;;;;;;;;;;;;;8.37;57.98;101546.22;5031269;28;21323;-77
2022/11/26 06:46:02;;;;;;;;;;;;;;;8.46;55.19;101539.09;5026469;28;20298;-77
2022/11/26 06:48:47;;;;;;;;;;;;;;;8.47;55.12;101529.06;5035641;28;19917;-77
2022/11/26 06:51:32;;;;;;;;;;;;;;;8.42;56.20;101527.22;5036652;28;20377;-77
2022/11/26 06:54:16;;;;;;;;;;;;;;;8.41;54.76;101532.91;5036271;28;19917;-78
2022/11/26 06:57:01;;;;;;;;;;;;;;;8.45;54.20;101521.22;5035169;28;19925;-77
2022/11/26 06:59:45;;;;;;;;;;;;;;;8.53;53.65;101536.09;5033313;28;19913;-77
2022/11/26 07:02:30;;;;;;;;;;;;;;;8.20;54.36;101539.50;5033005;28;20297;-78
2022/11/26 07:05:14;;;;;;;;;;;;;;;8.19;55.53;101544.09;5029507;28;19913;-78
2022/11/26 07:07:59;;;;;;;;;;;;;;;7.60;55.89;101550.28;5032100;28;19920;-79
2022/11/26 07:10:43;;;;;;;;;;;;;;;7.60;59.40;101549.47;5033762;28;19913;-77
2022/11/26 07:13:28;;;;;;;;;;;;;;;7.27;57.11;101553.56;5036969;28;19913;-78
2022/11/26 07:16:13;;;;;;;;;;;;;;;6.99;58.62;101557.66;5033675;28;19913;-78
2022/11/26 07:18:57;;;;;;;;;;;;;;;7.23;58.60;101557.91;5032910;28;20390;-78
2022/11/26 07:21:42;;;;;;;;;;;;;;;7.48;58.31;101567.88;5034636;28;20293;-77
2022/11/26 07:24:26;;;;;;;;;;;;;;;7.89;57.43;101572.13;5032884;28;19920;-77
2022/11/26 07:27:10;;;;;;;;;;;;;;;7.47;56.67;101566.25;5027764;28;19913;-78
2022/11/26 07:29:55;;;;;;;;;;;;;;;7.57;57.40;101577.88;5035161;28;20313;-78
2022/11/26 07:32:39;;;;;;;;;;;;;;;7.89;58.95;101582.13;5035658;28;19913;-78
2022/11/26 07:35:24;;;;;;;;;;;;;;;7.82;56.41;101578.94;5032734;28;19913;-78
2022/11/26 07:38:08;;;;;;;;;;;;;;;7.83;57.55;101584.03;5030789;28;20012;-78
2022/11/26 07:40:53;;;;;;;;;;;;;;;8.18;57.26;101590.44;5024484;28;20101;-77
2022/11/26 07:43:39;;;;;;;;;;;;;;;8.01;56.31;101588.88;5032328;28;19917;-78
2022/11/26 07:46:24;;;;;;;;;;;;;;;8.31;55.98;101601.50;5024757;28;19913;-77
2022/11/26 07:49:08;;;;;;;;;;;;;;;8.18;55.90;101601.28;5029726;28;19913;-79
2022/11/26 07:51:53;;;;;;;;;;;;;;;8.37;57.12;101613.97;5023952;28;19913;-79
2022/11/26 07:54:37;;;;;;;;;;;;;;;8.44;56.53;101600.91;5032174;28;19917;-80
2022/11/26 07:57:21;;;;;;;;;;;;;;;8.53;57.08;101626.31;5032111;28;19917;-80
2022/11/26 08:00:06;;;;;;;;;;;;;;;8.77;57.85;101620.25;5024080;28;19913;-78
2022/11/26 08:02:56;;;;;;;;;;;;;;;8.49;57.96;101627.97;5026264;28;19913;-78
2022/11/26 08:05:41;;;;;;;;;;;;;;;9.18;68.39;101637.88;5042211;28;20385;-76
2022/11/26 08:08:26;;;;;;;;;;;;;;;8.80;59.40;101633.22;5035101;28;20305;-77
2022/11/26 08:11:12;;;;;;;;;;;;;;;9.03;58.86;101643.41;5021707;28;19920;-76
2022/11/26 08:13:58;;;;;;;;;;;;;;;9.23;58.58;101645.16;5038494;28;19916;-76
2022/11/26 08:16:43;;;;;;;;;;;;;;;9.22;59.28;101652.47;5030983;28;20301;-76
2022/11/26 08:19:27;;;;;;;;;;;;;;;8.95;59.53;101660.25;5034903;28;19913;-76
2022/11/26 08:22:12;;;;;;;;;;;;;;;9.09;60.85;101672.13;5032950;28;19913;-76
2022/11/26 08:24:56;;;;;;;;;;;;;;;9.26;60.44;101674.44;5033505;28;19913;-76
2022/11/26 08:27:41;;;;;;;;;;;;;;;9.32;61.08;101682.25;5035727;28;19917;-76
2022/11/26 08:30:25;;;;;;;;;;;;;;;9.47;58.61;101672.38;5032734;28;20366;-76
2022/11/26 08:33:10;;;;;;;;;;;;;;;9.63;58.52;101685.53;5028780;28;19912;-76
2022/11/26 08:35:55;;;;;;;;;;;;;;;9.91;59.14;101683.91;5034701;28;19917;-76
2022/11/26 08:38:40;;;;;;;;;;;;;;;10.39;62.46;101694.84;5034217;28;19921;-76
2022/11/26 08:41:25;;;;;;;;;;;;;;;10.22;57.96;101700.75;5033951;28;19913;-76
2022/11/26 08:44:10;;;;;;;;;;;;;;;10.10;59.19;101698.41;5032091;28;19921;-75
2022/11/26 08:46:54;;;;;;;;;;;;;;;10.17;59.73;101709.75;5035565;28;20384;-76
2022/11/26 08:49:39;;;;;;;;;;;;;;;10.41;59.65;101706.25;5038599;28;20293;-76
2022/11/26 08:52:24;;;;;;;;;;;;;;;11.14;67.58;101709.38;5036950;28;19928;-76
2022/11/26 08:55:08;;;;;;;;;;;;;;;11.42;60.23;101718.50;5041006;28;20362;-75
2022/11/26 08:57:53;;;;;;;;;;;;;;;11.50;57.75;101715.06;5042563;28;20301;-77
2022/11/26 09:00:37;;;;;;;;;;;;;;;11.49;56.86;101718.91;5040041;28;19916;-78
2022/11/26 09:03:22;;;;;;;;;;;;;;;12.07;58.12;101726.69;5044084;28;20384;-77
2022/11/26 09:06:07;;;;;;;;;;;;;;;11.67;55.08;101717.28;5041382;28;19913;-78
2022/11/26 09:11:56;;;;;;;;;;;;;;;11.38;55.79;101722.88;5036785;28;19921;-77
2022/11/26 09:14:41;;;;;;;;;;;;;;;11.32;56.17;101729.53;5031235;28;19917;-77
2022/11/26 09:17:25;;;;;;;;;;;;;;;11.22;56.94;101732.41;5033153;28;20301;-78
2022/11/26 09:20:11;;;;;;;;;;;;;;;11.27;57.06;101740.50;5033538;28;19913;-78
2022/11/26 09:22:55;;;;;;;;;;;;;;;11.21;57.18;101744.41;5037447;28;19913;-77
2022/11/26 09:25:40;;;;;;;;;;;;;;;11.34;57.86;101751.81;5034190;28;19913;-76
2022/11/26 09:28:26;;;;;;;;;;;;;;;11.36;57.68;101755.06;5026542;28;19913;-77
2022/11/26 09:31:10;;;;;;;;;;;;;;;11.48;56.70;101766.31;5033282;28;20385;-77
2022/11/26 09:33:56;;;;;;;;;;;;;;;11.40;56.51;101764.25;5037324;28;19912;-77
2022/11/26 09:36:40;;;;;;;;;;;;;;;11.44;55.39;101770.72;5041309;28;19917;-78
2022/11/26 09:39:25;;;;;;;;;;;;;;;11.51;54.67;101776.63;5034195;28;19917;-78
2022/11/26 09:42:20;;;;;;;;;;;;;;;11.68;54.00;101782.38;5039720;28;19912;-77
2022/11/26 09:45:11;;;;;;;;;;;;;;;11.78;56.21;101782.25;5053965;28;19913;-78
2022/11/26 09:47:56;;;;;;;;;;;;;;;11.94;54.28;101786.31;5058489;28;19913;-77
2022/11/26 09:50:41;;;;;;;;;;;;;;;12.10;55.48;101786.06;5051418;28;19917;-78
2022/11/26 09:53:29;;;;;;;;;;;;;;;12.23;56.46;101796.19;5035212;28;19912;-78
2022/11/26 09:56:18;;;;;;;;;;;;;;;12.21;58.16;101792.97;5025616;28;19913;-77
2022/11/26 09:59:05;;;;;;;;;;;;;;;12.07;59.75;101794.84;5049714;28;19917;-82
2022/11/26 10:01:50;;;;;;;;;;;;;;;12.07;59.33;101795.66;5019393;28;20377;-77
2022/11/26 10:04:36;;;;;;;;;;;;;;;12.09;57.66;101790.69;5015502;28;19913;-85
2022/11/26 10:07:32;;;;;;;;;;;;;;;12.12;57.49;101792.03;5030293;28;19921;-80
2022/11/26 10:10:22;;;;;;;;;;;;;;;12.15;56.75;101794.97;5039699;28;19916;-80
2022/11/26 10:13:07;;;;;;;;;;;;;;;12.14;56.32;101792.56;5040165;28;19916;-80
2022/11/26 10:15:55;;;;;;;;;;;;;;;12.15;57.40;101791.41;5039422;28;19913;-83
2022/11/26 10:18:49;;;;;;;;;;;;;;;12.13;57.03;101782.75;5035032;28;20310;-78
2022/11/26 10:21:36;;;;;;;;;;;;;;;12.19;54.96;101787.78;5049274;28;20293;-77
2022/11/26 10:24:20;;;;;;;;;;;;;;;12.24;54.08;101789.66;5035315;28;19913;-78
2022/11/26 10:27:12;;;;;;;;;;;;;;;12.27;54.62;101794.50;5032253;28;19913;-78
2022/11/26 10:29:59;;;;;;;;;;;;;;;12.32;54.32;101787.03;5034461;28;19913;-78
2022/11/26 10:32:45;;;;;;;;;;;;;;;12.36;54.38;101789.97;5030779;28;19913;-78
2022/11/26 10:35:30;;;;;;;;;;;;;;;12.34;55.47;101784.78;5032318;28;20008;-77
2022/11/26 10:38:14;;;;;;;;;;;;;;;12.35;56.08;101782.88;5030981;28;19917;-78
2022/11/26 10:40:59;;;;;;;;;;;;;;;12.43;55.54;101782.19;5032601;28;20373;-78
2022/11/26 10:43:43;;;;;;;;;;;;;;;12.49;56.01;101785.63;5030838;28;20325;-78
2022/11/26 10:46:31;;;;;;;;;;;;;;;12.55;55.15;101785.22;5038603;28;19913;-78
2022/11/26 10:49:19;;;;;;;;;;;;;;;12.56;54.98;101781.38;5030299;28;19913;-78
2022/11/26 10:52:07;;;;;;;;;;;;;;;12.62;55.08;101784.84;5028064;28;20374;-77
2022/11/26 10:55:08;;;;;;;;;;;;;;;12.68;55.10;101789.91;5042005;28;19917;-78
2022/11/26 10:58:04;;;;;;;;;;;;;;;12.71;54.53;101783.00;5023723;28;19921;-78
2022/11/26 11:00:49;;;;;;;;;;;;;;;12.71;54.36;101789.28;5032557;28;19913;-76
2022/11/26 11:03:45;;;;;;;;;;;;;;;12.78;54.59;101783.44;5027244;28;19913;-78
2022/11/26 11:06:42;;;;;;;;;;;;;;;12.78;54.44;101786.16;5035122;28;20293;-77
2022/11/26 11:09:27;;;;;;;;;;;;;;;12.88;54.53;101776.94;5026261;28;19913;-77
2022/11/26 11:12:14;;;;;;;;;;;;;;;13.02;53.04;101777.75;5026444;28;19913;-78
2022/11/26 11:15:18;;;;;;;;;;;;;;;13.18;50.52;101781.78;5031517;28;19913;-77
2022/11/26 11:18:20;;;;;;;;;;;;;;;13.25;49.74;101776.72;5031829;28;19917;-77
2022/11/26 11:21:05;;;;;;;;;;;;;;;13.47;48.10;101774.03;5027971;28;19912;-78
2022/11/26 11:23:50;;;;;;;;;;;;;;;13.47;47.98;101773.22;5024638;28;19921;-76
2022/11/26 11:26:42;;;;;;;;;;;;;;;13.56;47.42;101761.22;5033275;28;19917;-76
2022/11/26 11:29:27;;;;;;;;;;;;;;;13.64;46.90;101752.31;5026912;28;20381;-76
2022/11/26 11:32:31;;;;;;;;;;;;;;;13.73;46.23;101749.63;5051983;28;19913;-76
2022/11/26 11:35:21;;;;;;;;;;;;;;;13.81;44.83;101737.97;5029859;28;19913;-76
2022/11/26 11:38:19;;;;;;;;;;;;;;;13.90;42.89;101738.00;5027214;28;20294;-74
2022/11/26 11:41:13;;;;;;;;;;;;;;;13.94;40.78;101730.78;5036154;28;20273;-75
2022/11/26 11:44:01;;;;;;;;;;;;;;;13.97;41.47;101738.34;5040308;28;19913;-75
2022/11/26 11:46:49;;;;;;;;;;;;;;;14.03;40.76;101734.38;5047510;28;19913;-76
2022/11/26 11:49:33;;;;;;;;;;;;;;;14.06;41.48;101741.97;5035771;28;19913;-76
2022/11/26 11:52:27;;;;;;;;;;;;;;;14.09;39.95;101733.13;5035956;28;20298;-75
2022/11/26 11:55:11;;;;;;;;;;;;;;;14.05;39.21;101738.44;5027788;28;19913;-75
2022/11/26 11:58:05;;;;;;;;;;;;;;;14.11;39.64;101726.25;5029056;28;19917;-75
2022/11/26 12:00:50;;;;;;;;;;;;;;;14.12;39.65;101737.97;5032334;28;19913;-75
2022/11/26 12:03:48;;;;;;;;;;;;;;;14.18;40.47;101736.72;5038234;28;19913;-75
2022/11/26 12:06:38;;;;;;;;;;;;;;;14.18;39.80;101741.38;5060366;22;19920;-75
2022/11/26 12:09:40;;;;;;;;;;;;;;;14.15;39.57;101729.16;5057608;28;19917;-74
2022/11/26 12:12:30;;;;;;;;;;;;;;;14.13;38.97;101734.09;5052738;28;19913;-75
2022/11/26 12:15:22;;;;;;;;;;;;;;;14.22;40.01;101739.66;5046672;28;19940;-76
2022/11/26 12:18:19;;;;;;;;;;;;;;;14.15;38.88;101731.88;5035521;28;19933;-75
2022/11/26 12:21:11;;;;;;;;;;;;;;;14.19;39.62;101745.72;5038532;28;19913;-76
2022/11/26 12:24:19;;;;;;;;;;;;;;;14.25;39.09;101739.81;5033829;28;19920;-74
2022/11/26 12:27:18;;;;;;;;;;;;;;;14.27;38.68;101744.97;5034428;28;19913;-74
2022/11/26 12:30:27;;;;;;;;;;;;;;;14.19;37.92;101746.53;5034389;28;20377;-75
2022/11/26 12:33:15;;;;;;;;;;;;;;;14.23;39.12;101746.72;5038363;28;19912;-74
2022/11/26 12:36:13;;;;;;;;;;;;;;;14.19;38.22;101740.25;5050206;28;19921;-75
2022/11/26 12:39:17;;;;;;;;;;;;;;;14.31;39.68;101738.56;5032803;28;19917;-74
2022/11/26 12:42:05;;;;;;;;;;;;;;;14.45;39.24;101743.94;5041520;28;19917;-75
2022/11/26 12:44:51;;;;;;;;;;;;;;;14.49;39.41;101753.94;5034329;28;19913;-75
2022/11/26 12:47:37;;;;;;;;;;;;;;;14.57;38.02;101752.38;5031293;28;19913;-75
2022/11/26 12:50:28;;;;;;;;;;;;;;;14.69;38.27;101744.34;5042937;28;19913;-74
2022/11/26 12:53:44;;;;;;;;;;;;;;;15.24;37.02;101747.34;5035041;28;19913;-75
2022/11/26 12:56:32;;;;;;;;;;;;;;;19.29;31.22;101756.25;5043700;28;20317;-76
2022/11/26 12:59:26;;;;;;;;;;;;;;;18.97;30.16;101760.00;5015286;28;19917;-75
2022/11/26 13:02:18;;;;;;;;;;;;;;;19.69;29.05;101750.75;5023874;28;19913;-76
2022/11/26 13:05:03;;;;;;;;;;;;;;;20.31;28.31;101752.06;5033858;28;19913;-74
2022/11/26 13:08:10;;;;;;;;;;;;;;;20.97;27.59;101752.09;5032853;28;20389;-75
2022/11/26 13:11:00;;;;;;;;;;;;;;;21.94;26.53;101766.81;5036543;28;19913;-75
2022/11/26 13:13:45;;;;;;;;;;;;;;;20.90;27.61;101757.44;5047083;28;19913;-75
2022/11/26 13:16:36;;;;;;;;;;;;;;;20.47;27.83;101763.88;5032236;28;19913;-74
2022/11/26 13:19:29;;;;;;;;;;;;;;;21.58;27.46;101770.81;5029975;28;19917;-75
2022/11/26 13:22:14;;;;;;;;;;;;;;;20.84;27.13;101772.69;5027575;28;19913;-75
2022/11/26 13:25:17;;;;;;;;;;;;;;;20.42;28.27;101770.47;5030453;28;19913;-75
2022/11/26 13:28:18;;;;;;;;;;;;;;;20.10;28.35;101768.84;5050830;28;19913;-76
2022/11/26 13:31:21;;;;;;;;;;;;;;;21.19;27.44;101769.97;5046510;28;19913;-75
2022/11/26 13:34:27;;;;;;;;;;;;;;;20.96;27.39;101774.56;5033684;28;20309;-77
2022/11/26 13:37:29;;;;;;;;;;;;;;;22.02;26.61;101782.41;5029690;28;19913;-75
2022/11/26 13:40:32;;;;;;;;;;;;;;;22.57;25.17;101773.50;5030069;28;19917;-75
2022/11/26 13:43:23;;;;;;;;;;;;;;;22.40;25.81;101779.53;5034421;28;20297;-75
2022/11/26 13:46:08;;;;;;;;;;;;;;;21.92;26.43;101780.19;5037537;28;19913;-75
2022/11/26 13:49:13;;;;;;;;;;;;;;;23.06;25.45;101780.22;5036413;28;19912;-74
2022/11/26 13:52:09;;;;;;;;;;;;;;;23.11;25.79;101783.47;5032683;28;19913;-75
2022/11/26 13:55:00;;;;;;;;;;;;;;;22.49;26.20;101791.19;5033467;28;19913;-75
2022/11/26 13:57:48;;;;;;;;;;;;;;;22.71;25.93;101794.31;5033000;28;19913;-78
2022/11/26 14:00:34;;;;;;;;;;;;;;;22.95;25.76;101786.44;5032168;28;19913;-75
2022/11/26 14:03:44;;;;;;;;;;;;;;;23.69;24.68;101792.22;5024286;28;19913;-75
2022/11/26 14:06:32;;;;;;;;;;;;;;;23.21;25.74;101796.69;5028245;28;19913;-75
2022/11/26 14:09:36;;;;;;;;;;;;;;;23.24;25.57;101798.72;5025721;28;19913;-76
2022/11/26 14:12:21;;;;;;;;;;;;;;;23.11;25.30;101804.88;5032836;28;19913;-75
2022/11/26 14:15:25;;;;;;;;;;;;;;;22.94;25.93;101804.25;5027442;28;19913;-76
2022/11/26 14:18:11;;;;;;;;;;;;;;;22.67;26.69;101813.66;5023463;28;19916;-75
2022/11/26 14:20:59;;;;;;;;;;;;;;;22.72;26.31;101818.94;5029226;28;19914;-75
2022/11/26 14:23:45;;;;;;;;;;;;;;;22.80;26.69;101826.22;5026280;28;19916;-75
2022/11/26 14:26:37;;;;;;;;;;;;;;;22.58;27.28;101829.75;5021264;28;20151;-75
2022/11/26 14:29:21;;;;;;;;;;;;;;;21.99;28.17;101836.56;5027095;28;19913;-78
2022/11/26 14:32:12;;;;;;;;;;;;;;;21.89;28.54;101837.13;5040389;28;19913;-78